< < Back
Terminal Aerodrome Forecast


Current Version              Previous Versions:   1  2  3  4  5  6  7  8  9  

Terminal Aerodrome Forecast

520
FTUS44 KMRX 240523
TAFCHA
TAF
KCHA 240523Z 2406/2506 26004KT P6SM SKC
     FM250000 00000KT P6SM SCT250=

Latest METAR

257
SAUS80 KWBC 241700
MTRCHA
METAR KCHA 241653Z 25004KT 10SM SCT060 SCT250 SCT300 27/11 A3016 RMK AO2
SLP206 T02720111


USA.gov is the U.S. government's official web portal to all federal, state and local government web resources and services.